Kargasok, Russia
Current Conditions -  °F | °C
As of 7:00 AM on Saturday 20 Dec 2014 (Local Time) from USNN Reporting Station
Blowing Snow Blowing Snow  
Wind Chill:   Ceiling: 1300
Heat Index: 21°   Visibility: 6mi
Dew Point: 16°   Wind: 13mph
Humidity: 80%   Direction: 200°SSW
Pressure: 29.94"   Gusts: NA
Location:  59.06°N, 80.86°E
Report Text: USNN 200000Z 20006MPS 9999 DRSN OVC013 M06/M09 Q1014 NOSIG RMKQFE756 21410540
Loading
Personal Weather Stations






























Interactive Weather Map New forecast layout! Learn more

10-Day Weather Forecast

Advertisements
Track Severe Weather on mobile